Latest Weather Observations for Tasman Island

IDT60801

Issued at 3:11 pm EST Sunday 5 April 2020 (issued every 10 minutes, with the page automatically refreshed every 10 minutes)

About weather observations | Map of weather stations | Latest weather observations for TAS | Other Formats
Station Details ID: 094155 Name: TASMAN ISLAND Lat: -43.24 Lon: 148.00 Height: 240.0 m
Data from the previous 72 hours. | See also: Recent months at Tasman Island
Date/Time
EST
Temp
°C
App
Temp
°C
Dew
Point
°C
Rel
Hum
%
Delta-T
°C
Wind Press
QNH
hPa
Press
MSL
hPa
Rain since
9am
mm
Dir  Spd
km/h
Gust
km/h
Spd
kts
Gust
kts
05/03:00pm 8.9 3.6 2.9 66 2.6 WSW 20 43 11 23 995.9 995.8 0.4
05/02:37pm 8.8 3.3 1.7 61 3.0 WSW 20 54 11 29 995.6 995.5 0.4
05/02:30pm 8.9 4.5 2.7 65 2.7 SW 15 46 8 25 995.2 995.0 0.4
05/02:00pm 8.9 4.6 3.5 69 2.4 W 15 43 8 23 994.8 994.6 0.4
05/01:30pm 7.7 2.3 2.2 68 2.3 SW 20 56 11 30 994.5 994.3 0.4
05/01:00pm 6.1 -3.6 2.9 80 1.4 SW 43 80 23 43 994.0 993.8 0.4
05/12:41pm 7.8 1.0 3.3 73 1.9 SW 28 61 15 33 993.9 993.7 0.0
05/12:30pm 8.0 2.3 2.7 69 2.3 SW 22 46 12 25 993.8 993.6 0.0
05/12:00pm 7.5 2.2 3.0 73 1.9 SW 20 43 11 23 994.2 994.0 0.0
05/11:30am 7.5 0.9 2.0 68 2.3 SW 26 39 14 21 994.5 994.3 0.0
05/11:24am 7.5 0.4 1.6 66 2.4 SW 28 46 15 25 994.5 994.3 0.0
05/11:00am 7.9 3.2 0.9 61 2.9 WSW 15 30 8 16 994.5 994.3 0.0
05/10:30am 7.9 5.3 3.0 71 2.1 SSE 6 19 3 10 994.5 994.3 0.0
05/10:00am 7.3 4.3 1.8 68 2.3 WSW 7 20 4 11 994.7 994.5 0.0
05/09:30am 7.1 4.0 1.2 66 2.4 W 7 15 4 8 995.0 994.8 0.0
05/09:00am 6.8 2.2 1.3 68 2.3 WNW 15 26 8 14 994.8 994.6 7.0
05/08:30am 6.6 1.9 1.1 68 2.2 WNW 15 32 8 17 994.7 994.5 7.0
05/08:00am 6.3 3.3 1.0 69 2.2 N 6 13 3 7 994.8 994.6 7.0
05/07:30am 6.5 1.1 1.2 69 2.1 NW 19 35 10 19 994.7 994.5 7.0
05/07:00am 6.3 -0.2 0.2 65 2.4 NW 24 39 13 21 994.5 994.3 7.0
05/06:30am 5.8 0.0 0.2 67 2.2 NW 20 33 11 18 993.9 993.7 7.0
05/06:00am 5.6 -0.6 0.0 67 2.2 NW 22 33 12 18 993.9 993.7 7.0
05/05:30am 5.7 -2.4 -0.1 66 2.3 NW 32 44 17 24 993.8 993.6 7.0
05/05:16am 5.9 -2.2 -0.2 65 2.4 WNW 32 54 17 29 993.8 993.6 7.0
05/05:00am 5.6 -1.7 0.2 68 2.1 NW 28 41 15 22 993.9 993.7 7.0
05/04:33am 5.3 -1.9 0.7 72 1.8 NW 28 50 15 27 993.9 993.7 7.0
05/04:30am 5.3 -2.3 0.7 72 1.8 NW 30 46 16 25 994.0 993.8 7.0
05/04:07am 5.6 -3.3 0.8 71 1.9 NW 37 56 20 30 993.8 993.6 7.0
05/04:00am 5.6 -3.0 0.4 69 2.1 NW 35 48 19 26 993.8 993.6 7.0
05/03:31am 5.6 -2.6 0.4 69 2.0 NW 33 54 18 29 993.7 993.5 7.0
05/03:30am 5.7 -2.9 0.5 69 2.1 NW 35 54 19 29 993.8 993.6 7.0
05/03:29am 5.8 -3.2 0.4 68 2.1 NW 37 56 20 30 993.8 993.6 7.0
05/03:00am 6.2 -2.4 0.5 67 2.3 WNW 35 50 19 27 993.7 993.5 7.0
05/03:36am 6.2 -3.5 0.7 68 2.2 WNW 41 59 22 32 993.5 993.3 7.0
05/03:30am 6.2 -3.8 0.7 68 2.2 WNW 43 57 23 31 993.5 993.3 7.0
05/03:21am 6.1 -2.8 0.9 69 2.1 WNW 37 57 20 31 993.5 993.3 7.0
05/03:00am 6.2 -1.3 0.9 69 2.1 NW 30 43 16 23 993.8 993.6 7.0
05/02:30am 6.3 -1.8 1.0 69 2.1 WNW 33 46 18 25 994.0 993.8 7.0
05/02:06am 6.6 -1.3 1.1 68 2.2 WNW 32 50 17 27 993.7 993.5 7.0
05/02:00am 6.4 -1.5 1.1 69 2.2 NW 32 48 17 26 993.8 993.6 7.0
05/01:30am 6.5 0.1 0.8 67 2.3 NW 24 37 13 20 993.7 993.5 7.0
05/01:00am 6.8 0.1 1.3 68 2.3 NW 26 43 14 23 993.5 993.3 7.0
05/12:30am 6.8 0.5 1.7 70 2.1 NW 24 37 13 20 993.7 993.5 7.0
05/12:00am 7.1 0.8 1.6 68 2.3 NW 24 41 13 22 993.7 993.5 7.0
 
Date/Time
EST
Temp
°C
App
Temp
°C
Dew
Point
°C
Rel
Hum
%
Delta-T
°C
Wind Press
QNH
hPa
Press
MSL
hPa
Rain since
9am
mm
Dir  Spd
km/h
Gust
km/h
Spd
kts
Gust
kts
04/11:30pm 7.1 4.1 1.8 69 2.2 NW 7 28 4 15 993.6 993.4 7.0
04/11:00pm 7.1 1.8 2.0 70 2.1 WNW 19 39 10 21 993.5 993.3 7.0
04/10:30pm 7.3 2.1 2.4 71 2.1 WNW 19 46 10 25 993.1 992.9 7.0
04/10:00pm 7.5 3.5 2.8 72 2.0 NW 13 32 7 17 992.9 992.7 7.0
04/09:30pm 7.7 3.9 2.0 67 2.4 NW 11 35 6 19 992.3 992.2 7.0
04/09:00pm 7.8 3.8 2.7 70 2.2 NW 13 33 7 18 992.1 992.0 7.0
04/08:30pm 7.7 4.6 3.4 74 1.9 NW 9 30 5 16 991.6 991.4 7.0
04/08:00pm 7.6 0.9 3.6 76 1.8 WSW 28 56 15 30 991.2 991.0 7.0
04/07:51pm 7.5 0.0 3.7 77 1.6 WSW 32 59 17 32 990.7 990.5 7.0
04/07:33pm 7.5 2.0 4.1 79 1.5 SW 22 80 12 43 990.2 990.0 7.0
04/07:30pm 8.3 4.5 4.1 75 1.9 SW 13 37 7 20 990.5 990.3 7.0
04/07:00pm 8.3 4.4 3.2 70 2.2 NW 13 44 7 24 990.1 989.9 7.0
04/06:36pm 8.3 1.7 4.1 75 1.9 WSW 28 67 15 36 989.5 989.3 7.0
04/06:30pm 8.3 2.2 4.7 78 1.6 WSW 26 63 14 34 989.4 989.2 7.0
04/06:00pm 8.9 3.7 3.5 69 2.4 WSW 20 61 11 33 989.2 989.0 7.0
04/05:30pm 8.8 2.2 4.2 73 2.0 WSW 28 72 15 39 988.0 987.8 7.0
04/05:00pm 8.5 1.3 5.1 79 1.6 WSW 32 72 17 39 987.5 987.3 7.0
04/04:30pm 9.2 2.5 5.8 79 1.6 WSW 30 65 16 35 987.3 987.1 7.0
04/04:00pm 9.1 2.6 6.5 84 1.2 WSW 30 78 16 42 986.9 986.7 7.0
04/03:31pm 9.0 2.3 7.3 89 0.8 SW 32 83 17 45 985.9 985.7 6.8
04/03:30pm 9.3 3.0 7.4 88 0.9 SW 30 65 16 35 986.0 985.8 6.8
04/03:00pm 9.3 2.6 7.3 87 1.0 SW 32 72 17 39 986.4 986.2 6.8
04/02:30pm 8.8 2.2 8.4 97 0.2 SW 33 74 18 40 986.2 986.0 6.8
04/02:00pm 9.4 2.9 8.9 97 0.3 SW 33 76 18 41 986.4 986.2 6.6
04/01:30pm 9.1 0.7 9.0 99 0.0 SW 43 83 23 45 986.0 985.8 6.2
04/01:23pm 9.6 2.9 9.5 99 0.1 SW 35 78 19 42 986.0 985.8 6.0
04/01:00pm 10.2 4.9 9.9 98 0.2 SW 28 56 15 30 986.4 986.2 5.6
04/12:30pm 11.6 10.6 11.1 97 0.3 W 7 32 4 17 986.6 986.4 3.8
04/12:00pm 11.7 10.4 11.2 97 0.3 SW 9 26 5 14 986.2 986.0 3.2
04/11:30am 11.6 10.5 10.7 94 0.5 NNW 7 20 4 11 986.8 986.6 2.6
04/11:00am 11.5 9.7 10.7 95 0.4 WNW 11 24 6 13 987.4 987.2 1.8
04/10:30am 12.4 11.7 11.3 93 0.6 NW 6 24 3 13 987.9 987.7 1.0
04/10:00am 13.1 11.4 11.3 89 1.0 WNW 11 22 6 12 987.9 987.7 0.2
04/09:30am 13.5 11.7 10.9 84 1.4 WNW 11 20 6 11 987.9 987.7 0.2
04/09:00am 13.1 12.0 12.0 93 0.6 NW 9 15 5 8 987.8 987.6 2.8
04/08:30am 13.4 11.1 11.6 89 1.0 WNW 15 30 8 16 988.0 987.8 2.8
04/08:00am 13.2 9.1 12.6 96 0.3 NW 26 48 14 26 988.4 988.1 1.8
04/07:57am 13.2 9.4 12.4 95 0.4 NW 24 48 13 26 988.5 988.3 1.4
04/07:30am 13.3 11.7 12.7 96 0.3 NW 13 22 7 12 989.0 988.8 0.2
04/07:00am 13.4 12.0 12.1 92 0.7 WNW 11 17 6 9 989.6 989.4 0.2
04/06:30am 14.7 13.5 12.9 89 1.0 N 11 24 6 13 990.1 989.9 0.0
04/06:00am 14.9 10.0 12.6 86 1.3 N 30 44 16 24 990.7 990.5 0.0
04/05:30am 15.0 9.6 12.3 84 1.5 N 32 46 17 25 990.8 990.6 0.0
04/05:00am 14.8 8.3 11.8 82 1.7 N 37 46 20 25 991.1 990.9 0.0
04/04:30am 14.6 9.3 13.0 90 0.9 N 33 43 18 23 991.4 991.2 0.0
04/04:00am 14.8 7.5 12.7 87 1.2 N 43 57 23 31 991.9 991.8 0.0
04/03:30am 14.8 6.3 12.1 84 1.5 N 48 63 26 34 992.3 992.2 0.0
04/03:00am 14.8 7.0 11.9 83 1.6 N 44 63 24 34 993.2 993.0 0.0
04/02:59am 14.8 7.3 12.1 84 1.5 N 43 63 23 34 993.1 992.9 0.0
04/02:30am 14.7 6.6 12.2 85 1.4 N 46 61 25 33 993.6 993.4 0.0
04/02:00am 14.8 6.7 12.1 84 1.5 NNE 46 67 25 36 993.9 993.7 0.0
04/01:35am 14.6 6.6 13.6 94 0.6 N 48 72 26 39 994.1 993.9 0.0
04/01:30am 14.6 6.7 13.8 95 0.5 N 48 67 26 36 994.4 994.2 0.0
04/01:22am 14.7 7.1 13.7 94 0.6 N 46 65 25 35 994.5 994.3 0.0
04/01:00am 14.8 6.4 12.3 85 1.4 N 48 63 26 34 994.8 994.6 0.0
04/12:30am 14.8 8.6 12.5 86 1.3 N 37 76 20 41 995.5 995.4 0.0
04/12:00am 15.1 8.3 12.1 82 1.7 N 39 57 21 31 996.0 995.9 0.0
 
Date/Time
EST
Temp
°C
App
Temp
°C
Dew
Point
°C
Rel
Hum
%
Delta-T
°C
Wind Press
QNH
hPa
Press
MSL
hPa
Rain since
9am
mm
Dir  Spd
km/h
Gust
km/h
Spd
kts
Gust
kts
03/11:34pm 15.2 8.4 12.0 81 1.8 N 39 61 21 33 996.6 996.5 0.0
03/11:30pm 15.3 9.0 12.2 82 1.7 N 37 50 20 27 996.7 996.6 0.0
03/11:00pm 15.4 8.2 12.0 80 1.9 N 41 54 22 29 996.9 996.8 0.0
03/10:30pm 15.4 8.3 12.2 81 1.8 N 41 57 22 31 997.1 996.9 0.0
03/10:27pm 15.4 8.7 12.2 81 1.8 N 39 57 21 31 997.1 996.9 0.0
03/10:00pm 15.2 8.4 12.0 81 1.8 N 39 46 21 25 997.6 997.4 0.0
03/09:30pm 15.6 6.2 11.6 77 2.2 N 52 61 28 33 997.9 997.7 0.0
03/09:00pm 15.3 8.3 12.6 84 1.5 N 41 52 22 28 998.3 998.1 0.0
03/08:30pm 15.7 7.2 11.9 78 2.1 N 48 61 26 33 998.6 998.4 0.0
03/08:00pm 15.5 8.6 12.8 84 1.5 N 41 52 22 28 998.9 998.7 0.0
03/07:30pm 15.1 9.0 14.0 93 0.6 NNE 39 54 21 29 999.0 998.9 0.0
03/07:00pm 15.3 9.3 13.2 87 1.2 NNE 37 50 20 27 999.1 999.0 0.0
03/06:30pm 15.3 9.1 12.8 85 1.4 NNE 37 50 20 27 999.1 999.0 0.0
03/06:00pm 15.5 9.0 11.7 78 2.1 NNE 37 50 20 27 999.1 999.0 0.0
03/05:30pm 15.8 9.7 10.6 71 2.8 N 33 44 18 24 999.2 999.1 0.0
03/05:00pm 16.3 10.8 10.4 68 3.2 N 30 43 16 23 999.5 999.4 0.0
03/04:30pm 16.5 11.7 10.4 67 3.3 N 26 37 14 20 999.9 999.8 0.0
03/04:00pm 16.8 11.0 10.9 68 3.2 N 32 39 17 21 1000.3 1000.2 0.0
03/03:30pm 16.8 11.0 10.9 68 3.2 N 32 41 17 22 1000.8 1000.7 0.0
03/03:00pm 17.2 12.8 10.3 64 3.7 N 24 33 13 18 1000.9 1000.8 0.0
03/02:30pm 17.4 13.7 10.3 63 3.8 N 20 28 11 15 1001.4 1001.2 0.0
03/02:00pm 17.8 14.9 10.9 64 3.8 N 17 24 9 13 1001.5 1001.3 0.0
03/01:30pm 17.7 15.3 11.5 67 3.4 NNE 15 22 8 12 1001.7 1001.5 0.0
03/01:00pm 17.5 15.3 9.4 59 4.3 NNW 11 19 6 10 1002.1 1001.9 0.0
03/12:30pm 17.6 15.3 11.6 68 3.3 NNW 15 22 8 12 1002.2 1002.0 0.0
03/12:00pm 17.0 16.0 11.1 68 3.2 NW 7 17 4 9 1002.2 1002.0 0.0
03/11:30am 16.2 14.2 10.1 67 3.2 NW 11 17 6 9 1002.3 1002.1 0.0
03/11:00am 16.4 13.5 9.6 64 3.6 NW 15 20 8 11 1002.5 1002.4 0.0
03/10:30am 16.4 13.1 9.6 64 3.6 NW 17 26 9 14 1002.7 1002.6 0.0
03/10:00am 15.4 11.9 8.9 65 3.4 WNW 17 28 9 15 1002.7 1002.6 0.0
03/09:30am 15.3 14.4 9.4 68 3.1 WNW 4 15 2 8 1002.7 1002.6 0.0
03/09:00am 14.6 11.2 9.2 70 2.8 WNW 17 26 9 14 1002.7 1002.6 28.6
03/08:30am 14.7 11.0 9.3 70 2.8 WNW 19 32 10 17 1002.4 1002.2 28.6
03/08:00am 14.1 12.2 9.1 72 2.6 WNW 9 26 5 14 1002.2 1002.0 28.6
03/07:30am 13.8 11.9 9.0 73 2.5 W 9 32 5 17 1001.8 1001.6 28.6
03/07:00am 13.9 11.3 9.3 74 2.4 W 13 37 7 20 1001.1 1001.0 28.6
03/06:30am 13.8 11.4 10.2 79 1.9 W 13 28 7 15 1001.2 1001.1 28.6
03/06:00am 14.0 12.4 10.2 78 2.0 W 9 28 5 15 1000.7 1000.6 28.6
03/05:30am 13.8 12.7 10.8 82 1.6 W 7 26 4 14 1000.4 1000.3 28.6
03/05:00am 13.8 12.8 11.1 84 1.5 SW 7 24 4 13 1000.0 999.9 28.6
03/04:30am 13.8 12.5 11.3 85 1.3 SE 9 19 5 10 999.8 999.7 28.6
03/04:00am 14.1 13.0 12.1 88 1.1 WNW 9 24 5 13 999.8 999.7 28.6
03/03:30am 14.0 13.0 12.4 90 0.9 WNW 9 28 5 15 999.7 999.6 28.6
03/03:00am 14.0 13.1 12.6 91 0.8 SW 9 28 5 15 999.5 999.4 28.6
03/02:30am 14.2 11.3 12.9 92 0.7 WNW 20 35 11 19 999.4 999.3 28.6
03/02:00am 14.1 11.1 13.8 98 0.2 WNW 22 39 12 21 999.2 999.1 28.6
03/01:30am 14.1 12.9 14.1 100 0.0 WNW 13 39 7 21 999.3 999.2 28.6
03/01:00am 14.2 12.3 14.2 100 0.0 WNW 17 28 9 15 999.4 999.3 28.6
03/12:30am 14.3 14.5 14.3 100 0.0 NW 6 11 3 6 999.5 999.4 28.6
03/12:00am 15.1 16.4 15.1 100 0.0 WNW 2 7 1 4 999.6 999.5 28.6
 
Date/Time
EST
Temp
°C
App
Temp
°C
Dew
Point
°C
Rel
Hum
%
Delta-T
°C
Wind Press
QNH
hPa
Press
MSL
hPa
Rain since
9am
mm
Dir  Spd
km/h
Gust
km/h
Spd
kts
Gust
kts
02/11:30pm 15.2 14.1 15.2 100 0.0 N 15 26 8 14 1000.0 999.9 28.4
02/11:00pm 15.4 14.7 15.4 100 0.0 N 13 20 7 11 1000.5 1000.4 28.2
02/10:30pm 15.5 14.1 15.5 100 0.0 NNW 17 32 9 17 1000.7 1000.6 28.2
02/10:00pm 15.6 11.7 15.6 100 0.0 N 30 43 16 23 1000.9 1000.8 28.2
02/09:30pm 15.6 10.8 15.6 100 0.0 N 35 43 19 23 1001.1 1001.0 28.2
02/09:00pm 15.7 10.9 15.7 100 0.0 NE 35 65 19 35 1001.6 1001.4 28.2
02/08:30pm 15.4 11.9 15.4 100 0.0 NNE 28 50 15 27 1002.5 1002.4 27.6
02/08:23pm 15.5 11.6 15.5 100 0.0 NNE 30 50 16 27 1002.7 1002.6 27.4
02/08:00pm 15.6 9.3 15.6 100 0.0 NNE 43 57 23 31 1002.9 1002.8 26.0
02/07:36pm 15.9 9.5 15.9 100 0.0 NNE 44 63 24 34 1003.3 1003.2 25.2
02/07:30pm 15.9 8.7 15.9 100 0.0 NNE 48 65 26 35 1003.4 1003.3 25.2
02/07:11pm 15.7 12.3 15.7 100 0.0 NNE 28 48 15 26 1003.5 1003.4 24.6
02/07:00pm 15.5 12.8 15.5 100 0.0 NNE 24 59 13 32 1003.4 1003.3 24.6
02/06:30pm 15.5 12.0 15.5 100 0.0 NNE 28 74 15 40 1003.0 1002.9 23.8
02/06:12pm 15.3 11.3 15.3 100 0.0 ENE 30 82 16 44 1002.4 1002.2 23.4
02/06:11pm 15.3 11.0 15.3 100 0.0 ENE 32 82 17 44 1002.4 1002.2 23.2
02/06:10pm 15.2 10.6 15.2 100 0.0 ENE 33 82 18 44 1002.5 1002.4 23.2
02/06:09pm 15.2 10.6 15.2 100 0.0 ENE 33 82 18 44 1002.2 1002.0 23.0
02/06:00pm 15.1 8.6 15.1 100 0.0 ENE 43 87 23 47 1001.9 1001.7 22.2
02/05:34pm 15.2 10.3 15.2 100 0.0 ENE 35 80 19 43 1003.7 1003.6 19.2
02/05:30pm 15.1 10.7 15.1 100 0.0 E 32 80 17 43 1004.0 1003.9 18.6
02/05:00pm 15.1 12.2 15.1 100 0.0 ENE 24 69 13 37 1005.0 1004.9 14.6
02/04:42pm 15.1 12.6 15.1 100 0.0 ENE 22 54 12 29 1005.8 1005.6 12.8
02/04:30pm 15.0 12.8 15.0 100 0.0 NE 20 65 11 35 1006.0 1005.8 11.8
02/04:25pm 15.1 11.8 15.1 100 0.0 ENE 26 67 14 36 1006.0 1005.8 11.2

Other formats

Comma delimited format used in spreadsheet applications
http://www.bom.gov.au/fwo/IDT60801/IDT60801.95986.axf

JavaScript Object Notation format (JSON) in row-major order
http://www.bom.gov.au/fwo/IDT60801/IDT60801.95986.json

Data quality

Most of these data are generated automatically and are frequently updated. Quality checks on data are not normally performed. It is possible for incorrect values to appear. Refer to information at About Latest Weather Observations and please check the disclaimer before using these data.